Time;durP1;ratioP1;P1;durP2;ratioP2;P2;SDS_P1;SDS_P2;PMS_P1;PMS_P2;Temp;Humidity;BMP_temperature;BMP_pressure;BME280_temperature;BME280_humidity;BME280_pressure;Samples;Min_cycle;Max_cycle;Signal;HPM_P1;HPM_P2
2024/01/13 00:02:05;;;;;;;59.40;29.80;;;3.10;99.90;;;;;;5057516;28;20514;-79
2024/01/13 00:04:33;;;;;;;66.47;28.90;;;3.10;99.90;;;;;;5078211;28;21022;-78
2024/01/13 00:07:00;;;;;;;50.70;29.37;;;3.20;99.90;;;;;;5061787;28;20487;-78
2024/01/13 00:09:27;;;;;;;55.43;29.27;;;3.20;99.90;;;;;;5065472;28;20444;-79
2024/01/13 00:11:54;;;;;;;71.23;32.33;;;3.30;99.90;;;;;;5066160;28;20447;-78
2024/01/13 00:14:21;;;;;;;62.20;30.77;;;3.20;99.90;;;;;;5065873;28;20557;-78
2024/01/13 00:16:49;;;;;;;70.57;32.57;;;3.00;99.90;;;;;;5070542;28;20580;-78
2024/01/13 00:19:15;;;;;;;62.90;31.23;;;3.00;99.90;;;;;;5058268;28;20489;-79
2024/01/13 00:21:43;;;;;;;61.43;30.40;;;3.10;99.90;;;;;;5055143;28;20551;-80
2024/01/13 00:24:10;;;;;;;67.33;31.13;;;3.10;99.90;;;;;;5055582;28;20472;-79
2024/01/13 00:26:37;;;;;;;73.87;32.67;;;3.20;99.90;;;;;;5056557;28;20469;-78
2024/01/13 00:29:04;;;;;;;69.10;35.27;;;3.10;99.90;;;;;;5056041;28;20466;-79
2024/01/13 00:31:31;;;;;;;67.83;32.77;;;3.10;99.90;;;;;;5056627;28;20913;-79
2024/01/13 00:33:58;;;;;;;61.87;32.17;;;3.20;99.90;;;;;;5059784;28;20478;-78
2024/01/13 00:36:25;;;;;;;67.07;31.40;;;3.20;99.90;;;;;;5061368;28;20447;-79
2024/01/13 00:38:53;;;;;;;63.60;27.63;;;3.20;99.90;;;;;;5056334;28;20491;-80
2024/01/13 00:41:20;;;;;;;49.90;25.60;;;3.10;99.90;;;;;;5056201;28;20454;-79
2024/01/13 00:43:47;;;;;;;48.37;25.10;;;3.10;99.90;;;;;;5055916;28;20477;-79
2024/01/13 00:46:14;;;;;;;45.93;26.80;;;3.20;99.90;;;;;;5056913;28;20466;-78
2024/01/13 00:48:41;;;;;;;40.80;24.40;;;3.20;99.90;;;;;;5054243;28;20531;-78
2024/01/13 00:51:08;;;;;;;47.40;25.13;;;3.20;99.90;;;;;;5056725;28;20460;-79
2024/01/13 00:53:35;;;;;;;41.10;24.13;;;3.10;99.90;;;;;;5056510;28;21015;-79
2024/01/13 00:56:04;;;;;;;47.37;24.70;;;3.10;99.90;;;;;;5056474;28;20525;-79
2024/01/13 00:58:31;;;;;;;40.40;21.77;;;3.20;99.90;;;;;;5056748;28;20495;-79
2024/01/13 01:00:59;;;;;;;41.23;22.70;;;3.20;99.90;;;;;;5055818;28;20456;-79
2024/01/13 01:03:26;;;;;;;39.00;22.70;;;3.30;99.90;;;;;;5056020;28;20573;-79
2024/01/13 01:05:53;;;;;;;41.97;23.10;;;3.30;99.90;;;;;;5056538;28;20457;-79
2024/01/13 01:08:20;;;;;;;45.10;24.23;;;3.30;99.90;;;;;;5056136;28;20468;-77
2024/01/13 01:10:47;;;;;;;44.37;23.50;;;3.20;99.90;;;;;;5056196;28;20492;-79
2024/01/13 01:13:15;;;;;;;41.73;24.63;;;3.30;99.90;;;;;;5056291;28;20533;-79
2024/01/13 01:15:42;;;;;;;45.33;24.23;;;3.30;99.90;;;;;;5056882;28;20536;-79
2024/01/13 01:18:09;;;;;;;43.20;24.70;;;3.30;99.90;;;;;;5056433;28;20640;-78
2024/01/13 01:20:36;;;;;;;41.60;24.10;;;3.30;99.90;;;;;;5056165;28;20450;-79
2024/01/13 01:23:03;;;;;;;38.57;23.57;;;3.20;99.90;;;;;;5056177;28;20476;-79
2024/01/13 01:25:29;;;;;;;46.10;26.07;;;3.20;99.90;;;;;;5057269;28;20456;-79
2024/01/13 01:27:56;;;;;;;38.33;23.20;;;3.20;99.90;;;;;;5056620;28;20454;-79
2024/01/13 01:30:24;;;;;;;48.60;25.17;;;3.20;99.90;;;;;;5056171;28;20453;-78
2024/01/13 01:32:51;;;;;;;44.97;25.80;;;3.10;99.90;;;;;;5055904;28;20480;-79
2024/01/13 01:35:18;;;;;;;50.63;28.20;;;3.20;99.90;;;;;;5057147;28;20449;-81
2024/01/13 01:37:45;;;;;;;49.00;26.10;;;3.10;99.90;;;;;;5059601;28;20951;-78
2024/01/13 01:40:15;;;;;;;44.27;27.27;;;3.00;99.90;;;;;;5059696;28;20452;-78
2024/01/13 01:42:43;;;;;;;40.90;25.70;;;3.10;99.90;;;;;;5060598;28;20466;-79
2024/01/13 01:45:10;;;;;;;60.23;29.97;;;3.10;99.90;;;;;;5060851;28;20879;-79
2024/01/13 01:47:41;;;;;;;49.23;26.97;;;2.90;99.90;;;;;;5060047;28;20464;-79
2024/01/13 01:50:09;;;;;;;53.90;27.20;;;2.90;99.90;;;;;;5059834;28;20456;-79
2024/01/13 01:52:37;;;;;;;48.90;26.37;;;2.90;99.90;;;;;;5059875;28;20479;-79
2024/01/13 01:55:05;;;;;;;45.50;25.43;;;3.00;99.90;;;;;;5060250;28;20454;-79
2024/01/13 01:57:35;;;;;;;43.27;25.30;;;3.00;99.90;;;;;;5059582;28;20507;-79
2024/01/13 02:00:02;;;;;;;48.40;27.20;;;3.10;99.90;;;;;;5060459;28;20793;-79
2024/01/13 02:02:29;;;;;;;43.23;23.83;;;3.00;99.90;;;;;;5059765;28;20475;-79
2024/01/13 02:04:58;;;;;;;55.33;28.07;;;3.10;99.90;;;;;;5058944;28;20514;-78
2024/01/13 02:07:25;;;;;;;42.80;22.47;;;3.10;99.90;;;;;;5059235;28;20460;-80
2024/01/13 02:09:52;;;;;;;53.63;27.00;;;3.10;99.90;;;;;;5059562;28;20457;-79
2024/01/13 02:12:19;;;;;;;43.23;25.63;;;3.10;99.90;;;;;;5059147;28;20547;-79
2024/01/13 02:14:46;;;;;;;41.47;23.43;;;3.20;99.90;;;;;;5059604;28;20492;-79
2024/01/13 02:17:12;;;;;;;39.30;22.70;;;3.30;99.90;;;;;;5058813;28;20540;-79
2024/01/13 02:19:39;;;;;;;38.73;22.27;;;3.30;99.90;;;;;;5067338;28;20549;-79
2024/01/13 02:22:07;;;;;;;37.80;21.77;;;3.30;99.90;;;;;;5058545;28;20473;-80
2024/01/13 02:24:34;;;;;;;29.23;18.40;;;3.30;99.90;;;;;;5067087;28;20502;-79
2024/01/13 02:27:01;;;;;;;34.73;20.43;;;3.30;99.90;;;;;;5059136;28;20465;-78
2024/01/13 02:29:28;;;;;;;31.23;18.50;;;3.30;99.90;;;;;;5058929;28;20462;-79
2024/01/13 02:31:54;;;;;;;32.57;18.93;;;3.40;99.90;;;;;;5058434;28;20458;-79
2024/01/13 02:34:21;;;;;;;35.63;18.47;;;3.40;99.90;;;;;;5058689;28;20483;-79
2024/01/13 02:36:48;;;;;;;34.30;20.90;;;3.40;99.90;;;;;;5058871;28;21035;-80
2024/01/13 02:39:16;;;;;;;33.67;21.40;;;3.40;99.90;;;;;;5060703;28;20492;-78
2024/01/13 02:41:43;;;;;;;33.10;18.57;;;3.30;99.90;;;;;;5073023;28;20475;-77
2024/01/13 02:44:10;;;;;;;32.90;19.80;;;3.40;99.90;;;;;;5074591;28;20518;-78
2024/01/13 02:46:36;;;;;;;31.63;17.50;;;3.40;99.90;;;;;;5063003;28;20457;-80
2024/01/13 02:49:05;;;;;;;36.80;21.20;;;3.40;99.90;;;;;;5058400;28;20535;-80
2024/01/13 02:51:32;;;;;;;28.87;18.07;;;3.30;99.90;;;;;;5058384;28;20477;-78
2024/01/13 02:53:59;;;;;;;37.53;21.63;;;3.40;99.90;;;;;;5058777;28;20571;-79
2024/01/13 02:56:27;;;;;;;28.37;17.23;;;3.40;99.90;;;;;;5058739;28;20464;-80
2024/01/13 02:58:54;;;;;;;34.50;20.60;;;3.40;99.90;;;;;;5057794;28;20615;-79
2024/01/13 03:01:20;;;;;;;39.30;21.90;;;3.40;99.90;;;;;;5058633;28;20452;-79
2024/01/13 03:03:49;;;;;;;31.83;19.20;;;3.30;99.90;;;;;;5058019;28;20490;-79
2024/01/13 03:06:16;;;;;;;31.80;18.57;;;3.30;99.90;;;;;;5057955;28;20457;-80
2024/01/13 03:08:43;;;;;;;34.77;18.50;;;3.40;99.90;;;;;;5058075;28;20459;-78
2024/01/13 03:11:11;;;;;;;26.70;17.00;;;3.40;99.90;;;;;;5057946;28;20489;-79
2024/01/13 03:13:39;;;;;;;26.27;17.80;;;3.40;99.90;;;;;;5058314;28;20507;-78
2024/01/13 03:16:06;;;;;;;23.80;16.80;;;3.30;99.90;;;;;;5058333;28;21041;-78
2024/01/13 03:18:33;;;;;;;26.60;15.70;;;3.40;99.90;;;;;;5058055;28;20496;-78
2024/01/13 03:21:02;;;;;;;32.20;17.97;;;3.40;99.90;;;;;;5058002;28;20551;-79
2024/01/13 03:23:29;;;;;;;29.70;16.80;;;3.30;99.90;;;;;;5058135;28;20523;-78
2024/01/13 03:25:56;;;;;;;31.53;18.60;;;3.20;99.90;;;;;;5058352;28;21028;-79
2024/01/13 03:28:24;;;;;;;31.40;19.00;;;3.10;99.90;;;;;;5058412;28;20539;-78
2024/01/13 03:30:52;;;;;;;27.23;17.23;;;3.10;99.90;;;;;;5058194;28;20467;-78
2024/01/13 03:33:19;;;;;;;26.57;16.60;;;3.20;99.90;;;;;;5058617;28;20996;-79
2024/01/13 03:35:46;;;;;;;24.53;16.60;;;3.20;99.90;;;;;;5057876;28;20454;-79
2024/01/13 03:38:12;;;;;;;27.70;18.37;;;3.30;99.90;;;;;;5058692;28;20497;-79
2024/01/13 03:40:39;;;;;;;34.80;19.07;;;3.30;99.90;;;;;;5058275;28;20538;-79
2024/01/13 03:43:06;;;;;;;26.43;17.40;;;3.30;99.90;;;;;;5058510;28;20487;-79
2024/01/13 03:45:33;;;;;;;37.07;20.23;;;3.30;99.90;;;;;;5057601;28;20466;-80
2024/01/13 03:48:01;;;;;;;25.97;17.53;;;3.30;99.90;;;;;;5050407;28;20841;-78
2024/01/13 03:50:29;;;;;;;25.53;16.57;;;3.30;99.90;;;;;;5057641;28;20455;-78
2024/01/13 03:52:55;;;;;;;25.77;17.00;;;3.30;99.90;;;;;;5058134;28;20551;-79
2024/01/13 03:55:25;;;;;;;26.23;16.87;;;3.30;99.90;;;;;;5057951;28;20456;-78
2024/01/13 03:57:52;;;;;;;26.77;17.57;;;3.30;99.90;;;;;;5056687;28;20570;-79
2024/01/13 04:00:19;;;;;;;22.37;16.60;;;3.30;99.90;;;;;;5057703;28;20952;-79
2024/01/13 04:02:46;;;;;;;27.27;19.00;;;3.30;99.90;;;;;;5059424;28;20462;-78
2024/01/13 04:05:14;;;;;;;27.00;15.43;;;3.20;99.90;;;;;;5063729;28;20468;-79
2024/01/13 04:07:41;;;;;;;25.77;15.80;;;3.30;99.90;;;;;;5057439;28;20835;-79
2024/01/13 04:10:08;;;;;;;23.97;17.07;;;3.30;99.90;;;;;;5058403;28;20463;-79
2024/01/13 04:12:35;;;;;;;28.80;15.60;;;3.30;99.90;;;;;;5057955;28;21023;-80
2024/01/13 04:15:02;;;;;;;22.33;14.70;;;3.30;99.90;;;;;;5057436;28;20551;-80
2024/01/13 04:17:29;;;;;;;24.33;14.30;;;3.30;99.90;;;;;;5065422;28;20491;-79
2024/01/13 04:19:56;;;;;;;29.67;15.00;;;3.40;99.90;;;;;;5056698;28;20491;-80
2024/01/13 04:22:24;;;;;;;24.70;15.27;;;3.30;99.90;;;;;;5057704;28;20465;-79
2024/01/13 04:24:50;;;;;;;24.63;16.03;;;3.30;99.90;;;;;;5062083;28;20461;-78
2024/01/13 04:27:17;;;;;;;21.30;13.80;;;3.40;99.90;;;;;;5070687;28;20457;-79
2024/01/13 04:29:44;;;;;;;24.27;15.50;;;3.30;99.90;;;;;;5056229;28;20449;-80
2024/01/13 04:32:11;;;;;;;25.80;14.90;;;3.30;99.90;;;;;;5056131;28;20460;-78
2024/01/13 04:34:37;;;;;;;24.47;16.37;;;3.40;99.90;;;;;;5056561;28;20913;-79
2024/01/13 04:37:05;;;;;;;29.77;15.83;;;3.40;99.90;;;;;;5056477;28;20819;-79
2024/01/13 04:39:33;;;;;;;24.70;15.40;;;3.40;99.90;;;;;;5064900;28;20492;-80
2024/01/13 04:42:00;;;;;;;24.30;16.40;;;3.40;99.90;;;;;;5056520;28;20453;-79
2024/01/13 04:44:27;;;;;;;24.77;15.10;;;3.30;99.90;;;;;;5056242;28;20480;-79
2024/01/13 04:46:53;;;;;;;28.53;16.60;;;3.40;99.90;;;;;;5059066;28;20467;-79
2024/01/13 04:49:20;;;;;;;36.07;17.83;;;3.30;99.90;;;;;;5056017;28;21028;-79
2024/01/13 04:51:47;;;;;;;28.20;18.17;;;3.30;99.90;;;;;;5055822;28;20520;-80
2024/01/13 04:54:14;;;;;;;24.10;17.80;;;3.20;99.90;;;;;;5055390;28;21001;-79
2024/01/13 04:56:42;;;;;;;24.20;16.37;;;3.30;99.90;;;;;;5058323;28;20444;-79
2024/01/13 04:59:09;;;;;;;27.37;17.03;;;3.30;99.90;;;;;;5057305;28;20506;-79
2024/01/13 05:01:35;;;;;;;23.93;16.83;;;3.30;99.90;;;;;;5065283;28;20483;-79
2024/01/13 05:04:02;;;;;;;28.57;19.40;;;3.40;99.90;;;;;;5056628;28;20482;-79
2024/01/13 05:06:29;;;;;;;25.57;16.27;;;3.30;99.90;;;;;;5058662;28;20464;-79
2024/01/13 05:08:56;;;;;;;29.00;17.03;;;3.40;99.90;;;;;;5063648;28;20459;-79
2024/01/13 05:11:23;;;;;;;31.60;16.80;;;3.40;99.90;;;;;;5068847;28;20831;-79
2024/01/13 05:13:51;;;;;;;34.80;19.00;;;3.40;99.90;;;;;;5063332;28;20881;-79
2024/01/13 05:16:18;;;;;;;30.73;19.07;;;3.30;99.90;;;;;;5060878;28;20987;-79
2024/01/13 05:18:44;;;;;;;30.83;19.53;;;3.30;99.90;;;;;;5058174;28;20519;-79
2024/01/13 05:21:11;;;;;;;29.13;18.37;;;3.20;99.90;;;;;;5058919;28;20459;-79
2024/01/13 05:23:38;;;;;;;28.37;19.80;;;3.30;99.90;;;;;;5058172;28;20495;-80
2024/01/13 05:26:05;;;;;;;26.23;17.20;;;3.20;99.90;;;;;;5058928;28;20460;-79
2024/01/13 05:28:32;;;;;;;25.87;17.70;;;3.10;99.90;;;;;;5057456;28;20463;-79
2024/01/13 05:31:00;;;;;;;28.67;18.50;;;3.00;99.90;;;;;;5049237;28;20832;-79
2024/01/13 05:33:27;;;;;;;30.63;19.10;;;3.00;99.90;;;;;;5055960;28;20478;-79
2024/01/13 05:35:54;;;;;;;28.17;18.73;;;3.00;99.90;;;;;;5056287;28;20466;-80
2024/01/13 05:38:21;;;;;;;28.80;16.67;;;2.90;99.90;;;;;;5055920;28;20484;-78
2024/01/13 05:40:49;;;;;;;30.30;18.70;;;2.90;99.90;;;;;;5055134;28;20487;-78
2024/01/13 05:43:15;;;;;;;28.13;16.60;;;2.90;99.90;;;;;;5056076;28;20558;-79
2024/01/13 05:45:43;;;;;;;34.47;19.47;;;2.90;99.90;;;;;;5056346;28;20461;-79
2024/01/13 05:48:11;;;;;;;27.60;19.07;;;2.90;99.90;;;;;;5056597;28;20484;-78
2024/01/13 05:50:38;;;;;;;32.50;17.67;;;3.00;99.90;;;;;;5052126;28;20452;-79
2024/01/13 05:53:04;;;;;;;26.57;17.13;;;2.90;99.90;;;;;;5055522;28;20475;-79
2024/01/13 05:55:31;;;;;;;27.70;17.10;;;2.70;99.90;;;;;;5057228;28;20457;-80
2024/01/13 05:57:58;;;;;;;26.70;16.50;;;2.90;99.90;;;;;;5066015;28;20838;-78
2024/01/13 06:00:25;;;;;;;28.40;17.47;;;2.90;99.90;;;;;;5058439;28;20475;-79
2024/01/13 06:02:53;;;;;;;22.33;14.90;;;3.00;99.90;;;;;;5057541;28;21000;-79
2024/01/13 06:05:21;;;;;;;34.97;18.77;;;3.00;99.90;;;;;;5056067;28;20466;-79
2024/01/13 06:07:48;;;;;;;25.30;16.10;;;3.00;99.90;;;;;;5058175;28;20513;-78
2024/01/13 06:10:17;;;;;;;24.53;16.77;;;3.00;99.90;;;;;;5055845;28;20842;-78
2024/01/13 06:12:45;;;;;;;30.33;18.43;;;3.00;99.90;;;;;;5056423;28;20482;-80
2024/01/13 06:15:11;;;;;;;28.47;19.20;;;2.90;99.90;;;;;;5064314;28;20509;-77
2024/01/13 06:17:39;;;;;;;26.33;18.73;;;3.00;99.90;;;;;;5067541;28;20456;-77
2024/01/13 06:20:08;;;;;;;27.33;19.20;;;3.00;99.90;;;;;;5068540;28;20581;-78
2024/01/13 06:22:36;;;;;;;28.10;18.27;;;3.00;99.90;;;;;;5064634;28;20496;-79
2024/01/13 06:25:05;;;;;;;30.77;18.67;;;3.10;99.90;;;;;;5059620;28;20457;-79
2024/01/13 06:27:31;;;;;;;29.77;16.50;;;3.10;99.90;;;;;;5059846;28;20889;-79
2024/01/13 06:29:58;;;;;;;32.57;18.57;;;3.20;99.90;;;;;;5066539;28;20539;-79
2024/01/13 06:32:25;;;;;;;29.33;20.20;;;3.20;99.90;;;;;;5058298;28;20908;-78
2024/01/13 06:34:52;;;;;;;34.13;22.50;;;3.20;99.90;;;;;;5058443;28;20843;-79
2024/01/13 06:37:19;;;;;;;31.50;18.90;;;3.00;99.90;;;;;;5058456;28;20455;-79
2024/01/13 06:39:47;;;;;;;31.73;20.47;;;3.10;99.90;;;;;;5058175;28;20533;-78
2024/01/13 06:42:14;;;;;;;32.93;20.90;;;3.10;99.90;;;;;;5058045;28;20840;-79
2024/01/13 06:44:41;;;;;;;29.43;18.63;;;3.10;99.90;;;;;;5059308;28;20452;-79
2024/01/13 06:47:08;;;;;;;33.93;22.00;;;3.20;99.90;;;;;;5053661;28;20460;-79
2024/01/13 06:49:35;;;;;;;30.47;21.30;;;3.20;99.90;;;;;;5055982;28;20470;-78
2024/01/13 06:52:01;;;;;;;25.23;18.17;;;3.20;99.90;;;;;;5064087;28;20513;-79
2024/01/13 06:54:28;;;;;;;31.23;18.00;;;3.20;99.90;;;;;;5057956;28;20480;-83
2024/01/13 06:56:56;;;;;;;30.20;16.60;;;3.10;99.90;;;;;;5053795;28;20452;-83
2024/01/13 06:59:23;;;;;;;24.13;17.57;;;3.20;99.90;;;;;;5056946;28;21035;-79
2024/01/13 07:01:50;;;;;;;29.10;18.03;;;3.20;99.90;;;;;;5056409;28;20456;-78
2024/01/13 07:04:17;;;;;;;23.80;16.10;;;3.20;99.90;;;;;;5054791;28;20908;-79
2024/01/13 07:06:44;;;;;;;25.57;19.20;;;3.20;99.90;;;;;;5049642;28;20488;-79
2024/01/13 07:09:10;;;;;;;27.00;17.27;;;3.30;99.90;;;;;;5051521;28;20455;-78
2024/01/13 07:11:37;;;;;;;22.63;16.37;;;3.30;99.90;;;;;;5049113;28;20457;-77
2024/01/13 07:14:06;;;;;;;28.00;17.20;;;3.40;99.90;;;;;;5052150;28;21008;-79
2024/01/13 07:16:33;;;;;;;27.00;16.20;;;3.30;99.90;;;;;;5052084;28;20456;-79
2024/01/13 07:19:00;;;;;;;24.30;15.40;;;3.40;99.90;;;;;;5051299;28;20893;-80
2024/01/13 07:21:26;;;;;;;25.10;16.90;;;3.30;99.90;;;;;;5049801;28;20440;-79
2024/01/13 07:23:53;;;;;;;25.90;16.13;;;3.30;99.90;;;;;;5053363;28;20551;-78
2024/01/13 07:26:20;;;;;;;26.07;17.10;;;3.30;99.90;;;;;;5052627;28;20926;-79
2024/01/13 07:28:47;;;;;;;23.40;16.73;;;3.20;99.90;;;;;;5048086;28;20526;-78
2024/01/13 07:31:15;;;;;;;21.50;16.50;;;3.30;99.90;;;;;;5053595;28;20451;-79
2024/01/13 07:33:42;;;;;;;25.00;16.57;;;3.30;99.90;;;;;;5058684;28;20489;-78
2024/01/13 07:36:09;;;;;;;27.77;15.93;;;3.30;99.90;;;;;;5055377;28;20821;-79
2024/01/13 07:38:36;;;;;;;24.10;16.60;;;3.30;99.90;;;;;;5058516;28;20476;-78
2024/01/13 07:41:03;;;;;;;21.63;16.30;;;3.30;99.90;;;;;;5069327;28;21113;-79
2024/01/13 07:43:30;;;;;;;27.33;16.73;;;3.30;99.90;;;;;;5052305;28;20469;-80
2024/01/13 07:45:57;;;;;;;20.97;14.27;;;3.10;99.90;;;;;;5054709;28;20452;-79
2024/01/13 07:48:25;;;;;;;21.03;14.40;;;3.20;99.90;;;;;;5056513;28;20881;-79
2024/01/13 07:50:52;;;;;;;19.80;13.67;;;3.20;99.90;;;;;;5061086;28;20445;-79
2024/01/13 07:53:19;;;;;;;24.50;15.67;;;3.20;99.90;;;;;;5060649;28;20469;-79
2024/01/13 07:55:45;;;;;;;19.10;13.40;;;3.30;99.90;;;;;;5053700;28;20827;-78
2024/01/13 07:58:12;;;;;;;24.20;15.37;;;3.20;99.90;;;;;;5057672;28;20532;-79
2024/01/13 08:00:39;;;;;;;20.73;13.70;;;3.30;99.90;;;;;;5054637;28;20524;-79
2024/01/13 08:03:06;;;;;;;18.10;13.20;;;3.20;99.90;;;;;;5055421;28;20481;-79
2024/01/13 08:05:34;;;;;;;19.67;14.37;;;3.30;99.90;;;;;;5050336;28;20458;-79
2024/01/13 08:08:01;;;;;;;18.77;13.20;;;3.40;99.90;;;;;;5054078;28;20534;-79
2024/01/13 08:10:28;;;;;;;20.30;13.97;;;3.40;99.90;;;;;;5055991;28;20983;-79
2024/01/13 08:12:55;;;;;;;19.93;14.63;;;3.40;99.90;;;;;;5056037;28;20467;-77
2024/01/13 08:15:21;;;;;;;16.20;13.10;;;3.50;99.90;;;;;;5060387;28;20448;-78
2024/01/13 08:17:51;;;;;;;17.80;14.23;;;3.50;99.90;;;;;;5057124;28;20984;-79
2024/01/13 08:20:18;;;;;;;17.90;13.50;;;3.40;99.90;;;;;;5059954;28;20534;-78
2024/01/13 08:22:47;;;;;;;22.00;14.10;;;3.40;99.90;;;;;;5061002;28;20498;-78
2024/01/13 08:25:14;;;;;;;17.00;12.80;;;3.50;99.90;;;;;;5059302;28;20461;-79
2024/01/13 08:27:41;;;;;;;23.90;14.20;;;3.50;99.90;;;;;;5060570;28;20494;-79
2024/01/13 08:30:08;;;;;;;25.00;14.97;;;3.50;99.90;;;;;;5061322;28;20472;-78
2024/01/13 08:32:35;;;;;;;18.40;14.00;;;3.40;99.90;;;;;;5058308;28;21070;-79
2024/01/13 08:35:02;;;;;;;19.53;12.23;;;3.50;99.90;;;;;;5053491;28;20524;-79
2024/01/13 08:37:29;;;;;;;18.30;13.43;;;3.60;99.90;;;;;;5056239;28;20953;-79
2024/01/13 08:39:57;;;;;;;23.57;14.27;;;3.60;99.90;;;;;;5055601;28;20494;-79
2024/01/13 08:42:23;;;;;;;21.27;13.57;;;3.50;99.90;;;;;;5060671;28;20449;-77
2024/01/13 08:44:50;;;;;;;18.83;13.20;;;3.50;99.90;;;;;;5061675;28;20453;-77
2024/01/13 08:47:17;;;;;;;19.73;12.03;;;3.40;99.90;;;;;;5049975;28;20843;-78
2024/01/13 08:49:44;;;;;;;21.37;13.67;;;3.40;99.90;;;;;;5053001;28;20460;-78
2024/01/13 08:52:11;;;;;;;21.20;14.20;;;3.40;99.90;;;;;;5051187;28;20447;-78
2024/01/13 08:54:37;;;;;;;23.03;14.90;;;3.30;99.90;;;;;;5048258;28;21004;-79
2024/01/13 08:57:05;;;;;;;20.03;14.37;;;3.30;99.90;;;;;;5053086;28;20538;-79
2024/01/13 08:59:33;;;;;;;26.03;16.87;;;3.30;99.90;;;;;;5055912;28;20492;-78
2024/01/13 09:02:00;;;;;;;21.60;15.43;;;3.30;99.90;;;;;;5053937;28;20463;-79
2024/01/13 09:04:27;;;;;;;27.00;16.20;;;3.30;99.90;;;;;;5050991;28;20468;-79
2024/01/13 09:06:53;;;;;;;25.33;17.23;;;3.30;99.90;;;;;;5056004;28;20465;-79
2024/01/13 09:09:20;;;;;;;25.87;18.50;;;3.40;99.90;;;;;;5053292;28;20453;-79
2024/01/13 09:11:48;;;;;;;23.80;17.87;;;3.40;99.90;;;;;;5054691;28;21010;-79
2024/01/13 09:14:16;;;;;;;22.00;17.17;;;3.40;99.90;;;;;;5049345;28;20481;-78
2024/01/13 09:16:44;;;;;;;26.23;16.10;;;3.50;99.90;;;;;;5055630;28;20451;-79
2024/01/13 09:19:11;;;;;;;25.37;17.90;;;3.50;99.90;;;;;;5055136;28;20464;-80
2024/01/13 09:21:38;;;;;;;29.70;18.87;;;3.50;99.90;;;;;;5055473;28;20470;-79
2024/01/13 09:24:05;;;;;;;29.37;17.80;;;3.50;99.90;;;;;;5056432;28;20872;-80
2024/01/13 09:26:32;;;;;;;23.17;15.87;;;3.60;99.90;;;;;;5055988;28;20460;-80
2024/01/13 09:28:59;;;;;;;25.33;16.23;;;3.50;99.90;;;;;;5049175;28;20458;-79
2024/01/13 09:31:27;;;;;;;30.13;18.70;;;3.60;99.90;;;;;;5055839;28;20453;-79
2024/01/13 09:33:54;;;;;;;26.20;16.80;;;3.40;99.90;;;;;;5056173;28;20984;-79
2024/01/13 09:36:21;;;;;;;32.63;19.67;;;3.50;99.90;;;;;;5055721;28;20461;-78
2024/01/13 09:38:47;;;;;;;29.70;17.77;;;3.50;99.90;;;;;;5055555;28;20468;-79
2024/01/13 09:41:14;;;;;;;22.90;17.27;;;3.50;99.90;;;;;;5055376;28;20499;-80
2024/01/13 09:43:53;;;;;;;26.07;18.43;;;3.50;99.90;;;;;;5057210;28;20489;-80
2024/01/13 09:46:20;;;;;;;24.57;16.43;;;3.50;99.90;;;;;;5060864;28;20456;-80
2024/01/13 09:48:49;;;;;;;26.13;16.73;;;3.50;99.90;;;;;;5058566;28;20456;-81
2024/01/13 09:51:16;;;;;;;24.97;17.97;;;3.50;99.90;;;;;;5066801;28;20452;-79
2024/01/13 09:53:48;;;;;;;24.83;16.13;;;3.50;99.90;;;;;;5066913;28;20477;-78
2024/01/13 09:56:22;;;;;;;23.90;16.83;;;3.60;99.90;;;;;;5062244;28;20539;-79
2024/01/13 09:58:48;;;;;;;26.93;16.50;;;3.50;99.90;;;;;;5062575;28;20484;-80
2024/01/13 10:01:15;;;;;;;27.83;18.60;;;3.50;99.90;;;;;;5062558;28;20487;-79
2024/01/13 10:03:42;;;;;;;25.73;16.90;;;3.40;99.90;;;;;;5052960;28;20477;-79
2024/01/13 10:06:10;;;;;;;34.23;18.37;;;3.30;99.90;;;;;;5062443;28;20463;-79
2024/01/13 10:08:37;;;;;;;29.70;18.43;;;3.40;99.90;;;;;;5061209;28;20457;-79
2024/01/13 10:11:04;;;;;;;27.40;18.07;;;3.40;99.90;;;;;;5058882;28;20448;-78
2024/01/13 10:13:31;;;;;;;29.50;18.70;;;3.50;99.90;;;;;;5058620;28;20479;-78
2024/01/13 10:15:58;;;;;;;27.50;19.63;;;3.50;99.90;;;;;;5057386;28;20459;-77
2024/01/13 10:18:25;;;;;;;27.50;18.43;;;3.50;99.90;;;;;;5055834;28;20463;-78
2024/01/13 10:20:52;;;;;;;28.70;18.30;;;3.60;99.90;;;;;;5057142;28;20557;-78
2024/01/13 10:23:22;;;;;;;22.33;16.00;;;3.60;99.90;;;;;;5058018;28;20496;-79
2024/01/13 10:25:50;;;;;;;28.73;14.90;;;;;;;;;;5059814;28;20943;-79
2024/01/13 10:28:17;;;;;;;28.53;16.30;;;;;;;;;;5065104;28;20457;-78
2024/01/13 10:30:44;;;;;;;25.33;15.67;;;;;;;;;;5052591;28;20524;-79
2024/01/13 10:33:12;;;;;;;28.80;18.93;;;4.20;99.90;;;;;;5058990;28;20460;-79
2024/01/13 10:35:38;;;;;;;30.97;18.30;;;3.50;99.90;;;;;;5055265;28;20480;-79
2024/01/13 10:38:07;;;;;;;27.87;18.53;;;3.40;99.90;;;;;;5058899;28;20967;-79
2024/01/13 10:40:35;;;;;;;30.50;20.57;;;3.40;99.90;;;;;;5060534;28;20495;-77
2024/01/13 10:43:06;;;;;;;33.20;21.57;;;3.40;99.90;;;;;;5059951;28;20488;-78
2024/01/13 10:45:36;;;;;;;33.50;21.50;;;3.40;99.90;;;;;;5059537;28;20452;-78
2024/01/13 10:48:08;;;;;;;29.10;18.17;;;3.30;99.90;;;;;;5063105;28;20460;-78
2024/01/13 10:50:37;;;;;;;29.10;18.97;;;3.30;99.90;;;;;;5071712;28;20447;-78
2024/01/13 10:53:16;;;;;;;29.67;19.53;;;3.30;99.90;;;;;;5061353;28;20965;-77
2024/01/13 10:55:45;;;;;;;27.70;18.57;;;3.30;99.90;;;;;;5062834;28;20532;-78
2024/01/13 10:58:13;;;;;;;29.00;19.93;;;3.30;99.90;;;;;;5062757;28;21020;-79
2024/01/13 11:00:41;;;;;;;31.43;19.30;;;3.30;99.90;;;;;;5060714;28;20487;-77
2024/01/13 11:03:12;;;;;;;32.73;20.03;;;3.30;99.90;;;;;;5062950;28;20493;-77
2024/01/13 11:05:38;;;;;;;28.33;19.37;;;3.40;99.90;;;;;;5062826;28;20479;-77
2024/01/13 11:08:07;;;;;;;27.50;18.50;;;3.30;99.90;;;;;;5057040;28;20460;-78
2024/01/13 11:10:36;;;;;;;26.30;18.20;;;3.30;99.90;;;;;;5061647;28;20976;-77
2024/01/13 11:13:15;;;;;;;27.07;18.13;;;3.40;99.90;;;;;;5056493;28;20483;-78
2024/01/13 11:15:48;;;;;;;25.90;17.97;;;3.30;99.90;;;;;;5054440;28;20480;-75
2024/01/13 11:18:18;;;;;;;25.90;17.40;;;3.30;99.90;;;;;;5055981;28;20483;-78
2024/01/13 11:21:05;;;;;;;29.90;20.63;;;3.30;99.90;;;;;;5058252;28;20868;-77
2024/01/13 11:23:39;;;;;;;29.10;19.83;;;3.30;99.90;;;;;;5053858;28;20555;-78
2024/01/13 11:26:06;;;;;;;32.03;19.07;;;3.40;99.90;;;;;;5054882;28;20567;-78
2024/01/13 11:28:48;;;;;;;31.20;19.23;;;3.40;99.90;;;;;;5053379;28;20450;-77
2024/01/13 11:31:34;;;;;;;32.03;20.87;;;3.40;99.90;;;;;;5055121;28;20457;-79
2024/01/13 11:34:02;;;;;;;25.70;16.50;;;3.30;99.90;;;;;;5063859;28;20535;-77
2024/01/13 11:36:30;;;;;;;26.97;18.77;;;3.30;99.90;;;;;;5054058;28;20548;-79
2024/01/13 11:39:01;;;;;;;26.80;17.60;;;3.30;99.90;;;;;;5044597;28;20431;-78
2024/01/13 11:41:39;;;;;;;28.30;18.43;;;3.40;99.90;;;;;;5056586;28;20501;-78
2024/01/13 11:44:07;;;;;;;42.67;26.57;;;3.40;99.90;;;;;;5051082;28;20970;-78
2024/01/13 11:46:38;;;;;;;26.83;18.43;;;3.30;99.90;;;;;;5059947;28;20914;-76
2024/01/13 11:49:06;;;;;;;27.40;18.53;;;3.30;99.90;;;;;;5058076;28;20541;-78
2024/01/13 11:51:58;;;;;;;27.27;16.70;;;3.40;99.90;;;;;;5041130;28;20545;-78
2024/01/13 11:54:25;;;;;;;24.50;17.10;;;3.40;99.90;;;;;;5044366;28;20543;-78
2024/01/13 11:56:53;;;;;;;26.53;16.60;;;3.40;99.90;;;;;;5047520;28;20992;-78
2024/01/13 11:59:21;;;;;;;21.90;15.77;;;3.50;99.90;;;;;;5062426;28;20460;-78
2024/01/13 12:01:48;;;;;;;26.23;16.80;;;3.40;99.90;;;;;;5059266;28;20494;-77
2024/01/13 12:04:17;;;;;;;24.30;17.30;;;3.40;99.90;;;;;;5056112;28;20473;-78
2024/01/13 12:06:44;;;;;;;21.80;15.90;;;3.50;99.90;;;;;;5065058;28;20824;-80
2024/01/13 12:09:12;;;;;;;24.97;16.20;;;3.40;99.90;;;;;;5056177;28;20674;-78
2024/01/13 12:11:39;;;;;;;26.60;19.60;;;3.50;99.90;;;;;;5059127;28;20448;-78
2024/01/13 12:14:06;;;;;;;26.00;17.90;;;3.30;99.90;;;;;;5057912;28;20997;-78
2024/01/13 12:16:36;;;;;;;26.60;16.10;;;3.40;99.90;;;;;;5058096;28;20591;-77
2024/01/13 12:19:03;;;;;;;22.13;16.87;;;3.40;99.90;;;;;;5050640;28;20465;-78
2024/01/13 12:21:30;;;;;;;20.47;14.70;;;3.50;99.90;;;;;;5058076;28;20532;-78
2024/01/13 12:23:59;;;;;;;24.23;16.73;;;3.50;99.90;;;;;;5058282;28;20472;-78
2024/01/13 12:26:29;;;;;;;24.97;18.00;;;3.60;99.90;;;;;;5052065;28;20962;-78
2024/01/13 12:28:56;;;;;;;25.60;18.53;;;3.60;99.90;;;;;;5057994;28;20431;-79
2024/01/13 12:31:23;;;;;;;30.33;19.70;;;3.50;99.90;;;;;;5058137;28;20905;-78
2024/01/13 12:33:52;;;;;;;26.37;17.90;;;3.50;99.90;;;;;;5067796;28;21029;-79
2024/01/13 12:36:19;;;;;;;23.80;16.67;;;3.40;99.90;;;;;;5063916;28;20968;-77
2024/01/13 12:38:47;;;;;;;28.30;18.80;;;3.40;99.90;;;;;;5057716;28;20537;-78
2024/01/13 12:41:14;;;;;;;25.60;18.20;;;3.50;99.90;;;;;;5058282;28;20511;-78